createdAt,value
2022-09-18T00:02:40.955Z,5.97
2022-09-18T00:07:42.239Z,12.03
2022-09-18T00:12:43.510Z,9.27
2022-09-18T00:17:44.799Z,9.43
2022-09-18T00:22:46.423Z,8.70
2022-09-18T00:27:47.659Z,13.17
2022-09-18T00:32:48.794Z,8.07
2022-09-18T00:37:49.901Z,14.57
2022-09-18T00:42:51.118Z,11.37
2022-09-18T00:47:52.455Z,11.20
2022-09-18T00:52:59.059Z,8.90
2022-09-18T00:58:04.737Z,7.07
2022-09-18T01:03:05.877Z,16.23
2022-09-18T01:08:13.503Z,7.20
2022-09-18T01:13:33.738Z,9.60
2022-09-18T01:19:04.754Z,8.87
2022-09-18T01:24:38.386Z,14.67
2022-09-18T01:30:06.482Z,12.77
2022-09-18T01:35:40.702Z,6.17
2022-09-18T01:40:50.241Z,9.50
2022-09-18T01:45:55.550Z,8.80
2022-09-18T01:51:13.313Z,15.30
2022-09-18T01:56:38.302Z,6.03
2022-09-18T02:01:43.688Z,6.43
2022-09-18T02:06:55.736Z,8.63
2022-09-18T02:11:59.247Z,11.00
2022-09-18T02:17:07.957Z,13.10
2022-09-18T02:22:14.484Z,9.80
2022-09-18T02:27:17.234Z,8.00
2022-09-18T02:32:18.722Z,12.53
2022-09-18T02:38:05.158Z,6.63
2022-09-18T02:43:21.087Z,13.87
2022-09-18T02:48:48.880Z,8.80
2022-09-18T02:53:56.625Z,6.53
2022-09-18T02:59:05.417Z,9.00
2022-09-18T03:04:14.105Z,8.67
2022-09-18T03:09:36.527Z,7.20
2022-09-18T03:14:38.332Z,9.00
2022-09-18T03:19:39.538Z,5.97
2022-09-18T03:24:41.649Z,5.30
2022-09-18T03:29:44.482Z,9.60
2022-09-18T03:34:46.183Z,7.00
2022-09-18T03:39:48.042Z,8.00
2022-09-18T03:44:49.391Z,9.90
2022-09-18T03:49:55.315Z,8.87
2022-09-18T03:54:56.934Z,8.13
2022-09-18T04:00:16.854Z,9.10
2022-09-18T04:05:17.963Z,7.07
2022-09-18T04:10:51.004Z,6.87
2022-09-18T04:15:52.197Z,6.07
2022-09-18T04:20:53.588Z,10.67
2022-09-18T04:25:54.967Z,9.37
2022-09-18T04:30:59.896Z,6.33
2022-09-18T04:36:01.446Z,9.27
2022-09-18T04:41:03.094Z,8.20
2022-09-18T04:46:05.580Z,10.17
2022-09-18T04:51:07.071Z,8.30
2022-09-18T04:56:20.445Z,8.63
2022-09-18T05:01:24.571Z,6.23
2022-09-18T05:06:25.942Z,7.47
2022-09-18T05:11:28.327Z,14.97
2022-09-18T05:16:29.787Z,11.90
2022-09-18T05:21:50.714Z,10.77
2022-09-18T05:26:53.226Z,5.87
2022-09-18T05:31:56.437Z,6.83
2022-09-18T05:36:57.893Z,4.83
2022-09-18T05:41:59.063Z,12.90
2022-09-18T05:47:00.499Z,7.30
2022-09-18T05:52:02.355Z,8.93
2022-09-18T05:57:04.608Z,6.47
2022-09-18T06:02:09.559Z,7.00
2022-09-18T06:07:50.238Z,8.00
2022-09-18T06:13:02.158Z,9.17
2022-09-18T06:18:05.140Z,9.73
2022-09-18T06:23:07.870Z,5.57
2022-09-18T06:28:19.433Z,9.27
2022-09-18T06:33:20.639Z,6.33
2022-09-18T06:38:23.430Z,4.67
2022-09-18T06:43:25.968Z,7.07
2022-09-18T06:48:48.561Z,4.87
2022-09-18T06:53:49.766Z,4.50
2022-09-18T06:58:54.249Z,4.33
2022-09-18T07:03:55.966Z,5.90
2022-09-18T07:09:00.422Z,4.13
2022-09-18T07:14:34.753Z,4.83
2022-09-18T07:19:46.325Z,5.97
2022-09-18T07:24:49.595Z,8.83
2022-09-18T07:29:50.698Z,5.90
2022-09-18T07:34:53.477Z,5.63
2022-09-18T07:40:07.379Z,3.20
2022-09-18T07:45:27.166Z,3.80
2022-09-18T07:50:29.954Z,4.20
2022-09-18T07:55:34.094Z,4.57
2022-09-18T08:00:36.250Z,3.87
2022-09-18T08:05:39.114Z,3.57
2022-09-18T08:10:43.808Z,4.40
2022-09-18T08:16:09.181Z,7.03
2022-09-18T08:21:42.797Z,4.80
2022-09-18T08:26:46.525Z,4.17
2022-09-18T08:31:48.403Z,2.80
2022-09-18T08:36:51.198Z,6.77
2022-09-18T08:42:06.736Z,3.50
2022-09-18T08:47:19.622Z,5.78
2022-09-18T08:52:28.311Z,4.88
2022-09-18T08:57:45.786Z,3.20
2022-09-18T09:03:25.683Z,3.60
2022-09-18T09:08:33.302Z,3.88
2022-09-18T09:14:39.649Z,4.10
2022-09-18T09:20:05.681Z,3.58
2022-09-18T09:25:13.082Z,4.18
2022-09-18T09:30:22.002Z,4.68
2022-09-18T09:35:50.006Z,2.53
2022-09-18T09:40:53.978Z,4.70
2022-09-18T09:46:01.889Z,2.78
2022-09-18T09:51:18.486Z,4.90
2022-09-18T09:56:42.614Z,1.88
2022-09-18T10:02:09.880Z,3.92
2022-09-18T10:07:22.862Z,2.35
2022-09-18T10:12:39.214Z,3.40
2022-09-18T10:17:42.226Z,6.80
2022-09-18T10:22:45.945Z,5.30
2022-09-18T10:27:47.113Z,3.40
2022-09-18T10:32:48.579Z,4.28
2022-09-18T10:37:57.402Z,3.78
2022-09-18T10:43:05.815Z,2.88
2022-09-18T10:48:15.742Z,7.07
2022-09-18T10:53:23.702Z,3.83
2022-09-18T10:58:29.398Z,6.05
2022-09-18T11:03:58.839Z,4.00
2022-09-18T11:09:09.106Z,2.03
2022-09-18T11:14:24.902Z,2.13
2022-09-18T11:19:38.263Z,3.78
2022-09-18T11:24:48.221Z,3.42
2022-09-18T11:29:49.400Z,2.53
2022-09-18T11:34:54.534Z,4.10
2022-09-18T11:40:06.904Z,3.90
2022-09-18T11:45:50.146Z,4.28
2022-09-18T11:51:00.442Z,2.38
2022-09-18T11:56:12.042Z,4.28
2022-09-18T12:01:41.320Z,1.10
2022-09-18T12:07:15.660Z,2.60
2022-09-18T12:12:22.859Z,2.25
2022-09-18T12:17:40.353Z,3.17
2022-09-18T12:22:47.595Z,2.63
2022-09-18T12:28:27.709Z,1.17
2022-09-18T12:33:56.919Z,1.15
2022-09-18T12:39:17.550Z,1.13
2022-09-18T12:44:40.777Z,1.58
2022-09-18T12:50:13.676Z,1.95
2022-09-18T12:55:45.512Z,0.93
2022-09-18T13:00:49.501Z,1.27
2022-09-18T13:06:00.107Z,2.25
2022-09-18T13:11:08.767Z,2.28
2022-09-18T13:16:17.012Z,3.50
2022-09-18T13:21:27.486Z,3.28
2022-09-18T13:26:32.341Z,1.40
2022-09-18T13:31:35.124Z,1.35
2022-09-18T13:36:39.728Z,0.98
2022-09-18T13:41:44.007Z,0.88
2022-09-18T13:46:46.409Z,1.35
2022-09-18T13:51:47.797Z,1.65
2022-09-18T13:57:02.045Z,1.17
2022-09-18T14:02:03.419Z,0.88
2022-09-18T14:07:17.539Z,0.85
2022-09-18T14:12:20.078Z,2.17
2022-09-18T14:17:21.357Z,0.88
2022-09-18T14:22:31.320Z,1.13
2022-09-18T14:27:43.267Z,2.45
2022-09-18T14:33:05.114Z,2.05
2022-09-18T14:38:37.036Z,1.42
2022-09-18T14:43:39.451Z,1.60
2022-09-18T14:48:40.720Z,1.77
2022-09-18T14:53:45.154Z,0.93
2022-09-18T14:58:49.685Z,2.15
2022-09-18T15:03:52.485Z,1.00
2022-09-18T15:08:56.237Z,0.80
2022-09-18T15:13:57.546Z,0.60
2022-09-18T15:19:17.212Z,3.40
2022-09-18T15:24:22.409Z,4.70
2022-09-18T15:29:37.400Z,3.08
2022-09-18T15:34:48.160Z,3.08
2022-09-18T15:40:04.634Z,7.43
2022-09-18T15:45:06.311Z,2.75
2022-09-18T15:50:16.592Z,2.33
2022-09-18T15:55:26.491Z,2.47
2022-09-18T16:00:35.993Z,2.43
2022-09-18T16:05:52.654Z,1.90
2022-09-18T16:10:57.595Z,2.67
2022-09-18T16:16:11.712Z,3.17
2022-09-18T16:21:21.059Z,3.67
2022-09-18T16:26:30.085Z,3.77
2022-09-18T16:31:36.671Z,4.87
2022-09-18T16:36:40.993Z,5.40
2022-09-18T16:41:42.826Z,3.30
2022-09-18T16:46:53.869Z,2.97
2022-09-18T16:51:56.910Z,3.70
2022-09-18T16:57:09.572Z,5.67
2022-09-18T17:02:13.866Z,5.67
2022-09-18T17:07:15.004Z,2.87
2022-09-18T17:12:16.114Z,5.60
2022-09-18T17:17:17.465Z,5.83
2022-09-18T17:22:22.481Z,6.00
2022-09-18T17:27:25.195Z,4.07
2022-09-18T17:32:26.371Z,3.17
2022-09-18T17:37:28.660Z,4.20
2022-09-18T17:42:30.342Z,6.40
2022-09-18T17:47:31.705Z,3.50
2022-09-18T17:52:34.823Z,3.97
2022-09-18T17:57:37.418Z,2.13
2022-09-18T18:02:38.737Z,3.30
2022-09-18T18:07:39.844Z,3.40
2022-09-18T18:12:40.889Z,2.87
2022-09-18T18:17:42.310Z,1.90
2022-09-18T18:22:43.818Z,1.53
2022-09-18T18:27:45.097Z,2.13
2022-09-18T18:32:47.822Z,1.67
2022-09-18T18:37:49.789Z,4.53
2022-09-18T18:42:50.946Z,3.63
2022-09-18T18:48:00.943Z,7.03
2022-09-18T18:53:02.072Z,7.83
2022-09-18T18:58:03.362Z,5.13
2022-09-18T19:03:04.560Z,2.00
2022-09-18T19:08:06.341Z,5.27
2022-09-18T19:13:07.917Z,7.60
2022-09-18T19:18:09.373Z,8.03
2022-09-18T19:23:12.500Z,4.30
2022-09-18T19:28:27.331Z,8.67
2022-09-18T19:33:33.953Z,8.03
2022-09-18T19:38:36.354Z,3.40
2022-09-18T19:43:39.430Z,7.37
2022-09-18T19:48:42.230Z,7.50
2022-09-18T19:53:43.988Z,5.60
2022-09-18T19:58:49.421Z,5.47
2022-09-18T20:03:54.048Z,4.50
2022-09-18T20:08:55.520Z,6.20
2022-09-18T20:13:56.629Z,5.90
2022-09-18T20:18:57.826Z,8.50
2022-09-18T20:23:59.374Z,4.07
2022-09-18T20:29:00.815Z,5.00
2022-09-18T20:34:03.573Z,4.07
2022-09-18T20:39:04.945Z,12.50
2022-09-18T20:44:06.209Z,8.20
2022-09-18T20:49:07.472Z,3.87
2022-09-18T20:54:12.076Z,10.43
2022-09-18T20:59:15.853Z,4.53
2022-09-18T21:04:18.928Z,10.33
2022-09-18T21:09:20.074Z,6.27
2022-09-18T21:14:23.400Z,7.97
2022-09-18T21:19:26.505Z,4.07
2022-09-18T21:24:27.681Z,8.30
2022-09-18T21:29:29.187Z,9.10
2022-09-18T21:34:32.681Z,7.07
2022-09-18T21:39:34.777Z,8.47
2022-09-18T21:44:36.912Z,4.87
2022-09-18T21:49:37.994Z,11.33
2022-09-18T21:54:39.553Z,9.43
2022-09-18T21:59:40.662Z,11.80
2022-09-18T22:04:44.892Z,8.13
2022-09-18T22:09:46.114Z,8.63
2022-09-18T22:14:48.230Z,7.07
2022-09-18T22:19:49.665Z,8.80
2022-09-18T22:24:50.805Z,8.33
2022-09-18T22:29:51.882Z,10.40
2022-09-18T22:34:53.809Z,8.63
2022-09-18T22:39:55.145Z,7.70
2022-09-18T22:44:56.294Z,15.70
2022-09-18T22:49:57.532Z,12.73
2022-09-18T22:54:59.789Z,7.93
2022-09-18T23:00:01.226Z,9.77
2022-09-18T23:05:02.797Z,8.20
2022-09-18T23:10:04.406Z,8.30
2022-09-18T23:15:05.777Z,11.43
2022-09-18T23:20:07.253Z,11.53
2022-09-18T23:25:08.973Z,13.37
2022-09-18T23:30:10.668Z,8.73
2022-09-18T23:35:11.849Z,6.10
2022-09-18T23:40:13.393Z,14.90
2022-09-18T23:45:14.438Z,8.33
2022-09-18T23:50:15.684Z,8.13
2022-09-18T23:55:17.509Z,9.47
